Time;durP1;ratioP1;P1;durP2;ratioP2;P2;SDS_P1;SDS_P2;PMS_P1;PMS_P2;Temp;Humidity;BMP_temperature;BMP_pressure;BME280_temperature;BME280_humidity;BME280_pressure;Samples;Min_cycle;Max_cycle;Signal;HPM_P1;HPM_P2
2022/07/23 00:01:36;;;;;;;0.30;0.30;;;14.40;99.90;;;;;;5060339;28;19916;-74
2022/07/23 00:04:02;;;;;;;0.63;0.63;;;14.40;99.90;;;;;;5076524;28;20570;-74
2022/07/23 00:06:28;;;;;;;0.38;0.38;;;14.40;99.90;;;;;;5073314;28;20170;-74
2022/07/23 00:08:53;;;;;;;0.98;0.95;;;14.40;99.90;;;;;;5060158;28;20638;-74
2022/07/23 00:11:19;;;;;;;0.60;0.60;;;14.20;99.90;;;;;;5063955;28;20123;-74
2022/07/23 00:13:45;;;;;;;0.68;0.40;;;14.30;99.90;;;;;;5076467;28;20041;-75
2022/07/23 00:16:11;;;;;;;5.05;2.00;;;14.40;99.90;;;;;;5066668;28;20040;-74
2022/07/23 00:18:36;;;;;;;0.88;0.88;;;14.10;99.90;;;;;;5082159;28;20053;-74
2022/07/23 00:21:03;;;;;;;0.40;0.40;;;14.00;99.90;;;;;;5073074;28;20033;-74
2022/07/23 00:23:29;;;;;;;;;;;14.00;99.90;;;;;;5076923;28;20066;-74
2022/07/23 00:25:55;;;;;;;0.30;0.30;;;14.10;99.90;;;;;;5081516;28;19916;-74
2022/07/23 00:28:21;;;;;;;0.40;0.40;;;13.90;99.90;;;;;;5083970;28;20109;-74
2022/07/23 00:30:46;;;;;;;0.45;0.45;;;14.10;99.90;;;;;;5082402;28;20041;-74
2022/07/23 00:33:12;;;;;;;;;;;13.80;99.90;;;;;;5072906;28;20086;-74
2022/07/23 00:35:40;;;;;;;0.32;0.32;;;14.10;99.90;;;;;;5088420;28;19920;-74
2022/07/23 00:38:09;;;;;;;0.73;0.73;;;14.30;99.90;;;;;;5062089;28;20060;-74
2022/07/23 00:40:35;;;;;;;0.40;0.40;;;13.80;99.90;;;;;;5078742;28;20385;-75
2022/07/23 00:43:02;;;;;;;0.50;0.50;;;14.00;99.90;;;;;;5079165;28;20119;-74
2022/07/23 00:45:28;;;;;;;;;;;13.70;99.90;;;;;;5078027;28;20032;-74
2022/07/23 00:47:54;;;;;;;0.50;0.50;;;13.80;99.90;;;;;;5085576;28;20407;-74
2022/07/23 00:50:20;;;;;;;0.57;0.57;;;13.40;99.90;;;;;;5080552;28;20311;-74
2022/07/23 00:52:46;;;;;;;0.38;0.38;;;13.50;99.90;;;;;;5076186;28;20040;-74
2022/07/23 00:55:12;;;;;;;0.30;0.30;;;13.60;99.90;;;;;;5076974;28;20040;-74
2022/07/23 00:57:39;;;;;;;0.30;0.30;;;13.40;99.90;;;;;;5086828;28;20049;-74
2022/07/23 01:00:07;;;;;;;0.22;0.22;;;13.40;99.90;;;;;;5074036;28;20072;-74
2022/07/23 01:02:33;;;;;;;0.35;0.35;;;13.40;99.90;;;;;;5077229;28;20040;-74
2022/07/23 01:04:59;;;;;;;0.40;0.40;;;13.30;99.90;;;;;;5077741;28;20036;-74
2022/07/23 01:07:25;;;;;;;0.32;0.32;;;13.50;99.90;;;;;;5078842;28;20040;-74
2022/07/23 01:09:54;;;;;;;0.40;0.40;;;13.50;99.90;;;;;;5084130;28;20071;-74
2022/07/23 01:12:20;;;;;;;0.32;0.32;;;13.40;99.90;;;;;;5089295;28;20047;-74
2022/07/23 01:14:53;;;;;;;;;;;13.20;99.90;;;;;;5094081;28;20136;-74
2022/07/23 01:17:19;;;;;;;0.30;0.30;;;13.30;99.90;;;;;;5073926;28;19988;-74
2022/07/23 01:19:44;;;;;;;0.40;0.40;;;13.30;99.90;;;;;;5098482;28;20579;-75
2022/07/23 01:22:10;;;;;;;0.40;0.40;;;13.30;99.90;;;;;;5078454;28;20044;-74
2022/07/23 01:24:36;;;;;;;0.30;0.30;;;13.30;99.90;;;;;;5087463;28;20040;-74
2022/07/23 01:27:02;;;;;;;0.30;0.30;;;13.40;99.90;;;;;;5080643;28;20122;-74
2022/07/23 01:29:28;;;;;;;0.30;0.30;;;13.40;99.90;;;;;;5089740;28;20137;-74
2022/07/23 01:31:54;;;;;;;0.30;0.30;;;13.60;99.90;;;;;;5082970;28;20052;-74
2022/07/23 01:34:19;;;;;;;;;;;13.40;99.90;;;;;;5089704;28;20083;-74
2022/07/23 01:36:45;;;;;;;0.30;0.30;;;13.40;99.90;;;;;;5065484;28;19920;-74
2022/07/23 01:39:11;;;;;;;0.45;0.45;;;13.50;99.90;;;;;;5076334;28;20579;-74
2022/07/23 01:41:37;;;;;;;0.40;0.40;;;13.50;99.90;;;;;;5081431;28;20048;-74
2022/07/23 01:44:02;;;;;;;;;;;13.60;99.90;;;;;;5078061;28;20071;-74
2022/07/23 01:46:28;;;;;;;0.40;0.40;;;13.60;99.90;;;;;;5080578;28;19955;-74
2022/07/23 01:48:53;;;;;;;;;;;13.50;99.90;;;;;;5081993;28;20134;-74
2022/07/23 01:51:19;;;;;;;0.40;0.40;;;13.60;99.90;;;;;;5078090;28;19920;-74
2022/07/23 01:53:45;;;;;;;0.40;0.40;;;13.60;99.90;;;;;;5072219;28;20094;-74
2022/07/23 01:56:10;;;;;;;0.20;0.20;;;13.50;99.90;;;;;;5072251;28;20071;-74
2022/07/23 01:58:36;;;;;;;0.40;0.40;;;13.50;99.90;;;;;;5072578;28;20041;-74
2022/07/23 02:01:02;;;;;;;0.20;0.20;;;13.60;99.90;;;;;;5074254;28;20059;-74
2022/07/23 02:03:27;;;;;;;0.30;0.30;;;13.50;99.90;;;;;;5082542;28;20480;-74
2022/07/23 02:05:53;;;;;;;0.30;0.30;;;13.80;99.90;;;;;;5058603;28;20046;-75
2022/07/23 02:08:19;;;;;;;0.35;0.35;;;13.60;99.90;;;;;;5074220;28;20048;-75
2022/07/23 02:10:45;;;;;;;;;;;13.60;99.90;;;;;;5074661;28;20118;-74
2022/07/23 02:13:11;;;;;;;0.35;0.35;;;13.60;99.90;;;;;;5062737;28;19924;-74
2022/07/23 02:15:37;;;;;;;0.40;0.40;;;13.70;99.90;;;;;;5079124;28;20040;-74
2022/07/23 02:18:03;;;;;;;0.38;0.38;;;13.80;99.90;;;;;;5086241;28;20063;-74
2022/07/23 02:20:28;;;;;;;;;;;13.80;99.90;;;;;;5082200;28;20381;-74
2022/07/23 02:22:54;;;;;;;0.30;0.30;;;14.00;99.90;;;;;;5080444;28;19923;-74
2022/07/23 02:25:20;;;;;;;0.30;0.30;;;13.90;99.90;;;;;;5065078;28;20547;-74
2022/07/23 02:27:46;;;;;;;0.40;0.40;;;14.00;99.90;;;;;;5076475;28;20086;-74
2022/07/23 02:30:12;;;;;;;0.40;0.40;;;14.00;99.90;;;;;;5080443;28;20499;-74
2022/07/23 02:32:39;;;;;;;0.30;0.30;;;14.10;99.90;;;;;;5078249;28;20505;-74
2022/07/23 02:35:05;;;;;;;0.20;0.20;;;14.20;99.90;;;;;;5080801;28;20039;-74
2022/07/23 02:37:31;;;;;;;0.20;0.20;;;14.10;99.90;;;;;;5077173;28;20048;-74
2022/07/23 02:39:57;;;;;;;0.30;0.30;;;14.30;99.90;;;;;;5083882;28;20043;-74
2022/07/23 02:42:23;;;;;;;0.22;0.22;;;14.40;99.90;;;;;;5077964;28;20040;-74
2022/07/23 02:44:50;;;;;;;0.30;0.30;;;14.20;99.90;;;;;;5085966;28;20462;-74
2022/07/23 02:47:16;;;;;;;0.30;0.30;;;14.20;99.90;;;;;;5067458;28;20040;-74
2022/07/23 02:49:42;;;;;;;0.60;0.60;;;14.20;99.90;;;;;;5082347;28;20039;-74
2022/07/23 02:52:10;;;;;;;;;;;14.30;99.90;;;;;;5084488;28;20051;-74
2022/07/23 02:54:36;;;;;;;0.40;0.40;;;14.50;99.90;;;;;;5071482;28;19924;-74
2022/07/23 02:57:02;;;;;;;0.30;0.30;;;14.50;99.90;;;;;;5085367;28;20036;-74
2022/07/23 02:59:27;;;;;;;0.85;0.85;;;14.50;99.90;;;;;;5071790;28;20055;-74
2022/07/23 03:01:53;;;;;;;0.30;0.30;;;14.50;99.90;;;;;;5072324;28;20036;-74
2022/07/23 03:04:19;;;;;;;1.02;0.93;;;14.30;99.90;;;;;;5070264;28;20040;-73
2022/07/23 03:06:44;;;;;;;;;;;14.20;99.90;;;;;;5086794;28;20139;-75
2022/07/23 03:09:10;;;;;;;0.40;0.40;;;14.40;99.90;;;;;;5077788;28;20002;-74
2022/07/23 03:11:36;;;;;;;0.75;0.75;;;14.50;99.90;;;;;;5075656;28;20055;-74
2022/07/23 03:14:01;;;;;;;0.30;0.30;;;14.40;99.90;;;;;;5076800;28;20485;-74
2022/07/23 03:16:27;;;;;;;0.40;0.40;;;14.50;99.90;;;;;;5076895;28;20044;-74
2022/07/23 03:18:52;;;;;;;0.43;0.43;;;14.40;99.90;;;;;;5076038;28;20354;-74
2022/07/23 03:21:18;;;;;;;0.52;0.52;;;14.20;99.90;;;;;;5079898;28;20036;-75
2022/07/23 03:23:44;;;;;;;0.30;0.30;;;14.20;99.90;;;;;;5080651;28;20077;-74
2022/07/23 03:26:09;;;;;;;;;;;14.30;99.90;;;;;;5063967;28;20126;-75
2022/07/23 03:28:35;;;;;;;1.02;0.70;;;14.30;99.90;;;;;;5086449;28;19916;-74
2022/07/23 03:31:01;;;;;;;1.27;0.50;;;14.30;99.90;;;;;;5081504;28;20500;-75
2022/07/23 03:33:26;;;;;;;;;;;14.30;99.90;;;;;;5091301;28;20117;-74
2022/07/23 03:35:52;;;;;;;0.30;0.30;;;14.20;99.90;;;;;;5081580;28;19916;-74
2022/07/23 03:38:18;;;;;;;0.30;0.30;;;14.20;99.90;;;;;;5061466;28;20071;-74
2022/07/23 03:40:43;;;;;;;4.88;0.70;;;14.50;99.90;;;;;;5084672;28;20048;-74
2022/07/23 03:43:09;;;;;;;2.20;0.98;;;14.30;99.90;;;;;;5086135;28;20067;-74
2022/07/23 03:45:34;;;;;;;;;;;14.30;99.90;;;;;;5057633;28;20572;-74
2022/07/23 03:48:00;;;;;;;0.50;0.50;;;14.30;99.90;;;;;;5084592;28;20010;-75
2022/07/23 03:50:26;;;;;;;0.98;0.73;;;14.20;99.90;;;;;;5087774;28;20082;-74
2022/07/23 03:52:52;;;;;;;0.38;0.38;;;14.30;99.90;;;;;;5080992;28;20043;-75
2022/07/23 03:55:18;;;;;;;0.45;0.45;;;14.50;99.90;;;;;;5059238;28;20075;-74
2022/07/23 03:57:43;;;;;;;;;;;14.20;99.90;;;;;;5079618;28;20052;-74
2022/07/23 04:00:10;;;;;;;0.50;0.50;;;14.30;99.90;;;;;;5081196;28;20306;-74
2022/07/23 04:02:40;;;;;;;0.30;0.30;;;14.30;99.90;;;;;;5077228;28;20044;-74
2022/07/23 04:05:06;;;;;;;0.40;0.40;;;14.60;99.90;;;;;;5060710;28;20041;-74
2022/07/23 04:07:32;;;;;;;0.55;0.55;;;14.50;99.90;;;;;;5066325;28;20040;-74
2022/07/23 04:09:58;;;;;;;0.55;0.55;;;14.40;99.90;;;;;;5080729;28;20543;-76
2022/07/23 04:12:24;;;;;;;0.50;0.50;;;14.30;99.90;;;;;;5083799;28;20043;-74
2022/07/23 04:14:50;;;;;;;;;;;14.40;99.90;;;;;;5080259;28;20048;-74
2022/07/23 04:17:15;;;;;;;0.20;0.20;;;14.50;99.90;;;;;;5079833;28;19986;-74
2022/07/23 04:19:43;;;;;;;0.60;0.60;;;14.50;99.90;;;;;;5083861;28;20040;-75
2022/07/23 04:22:10;;;;;;;0.40;0.40;;;14.50;99.90;;;;;;5083391;28;20044;-74
2022/07/23 04:24:36;;;;;;;0.98;0.65;;;14.50;99.90;;;;;;5082372;28;20374;-74
2022/07/23 04:27:02;;;;;;;0.30;0.30;;;14.60;99.90;;;;;;5088949;28;20043;-74
2022/07/23 04:29:28;;;;;;;0.50;0.50;;;14.60;99.90;;;;;;5082427;28;20048;-75
2022/07/23 04:31:54;;;;;;;0.30;0.30;;;14.60;99.90;;;;;;5079972;28;20037;-74
2022/07/23 04:34:20;;;;;;;0.40;0.40;;;14.80;99.90;;;;;;5073712;28;20048;-76
2022/07/23 04:36:46;;;;;;;;;;;14.70;99.90;;;;;;5084688;28;20040;-74
2022/07/23 04:39:11;;;;;;;0.55;0.55;;;14.80;99.90;;;;;;5074414;28;20007;-75
2022/07/23 04:41:37;;;;;;;0.30;0.30;;;14.70;99.90;;;;;;5079267;28;20044;-75
2022/07/23 04:44:03;;;;;;;;;;;14.70;99.90;;;;;;5061473;28;20064;-75
2022/07/23 04:46:29;;;;;;;0.45;0.45;;;14.70;99.90;;;;;;5066978;28;20384;-75
2022/07/23 04:48:54;;;;;;;0.20;0.20;;;14.80;99.90;;;;;;5074283;28;20431;-75
2022/07/23 04:51:20;;;;;;;;;;;14.90;99.90;;;;;;5076994;28;20048;-74
2022/07/23 04:53:46;;;;;;;0.30;0.30;;;14.80;99.90;;;;;;5078623;28;19920;-76
2022/07/23 04:56:11;;;;;;;0.30;0.30;;;14.80;99.90;;;;;;5083562;28;20479;-75
2022/07/23 04:58:37;;;;;;;0.20;0.20;;;14.80;99.90;;;;;;5074784;28;20124;-75
2022/07/23 05:01:03;;;;;;;0.20;0.20;;;14.90;99.90;;;;;;5077257;28;20040;-76
2022/07/23 05:03:29;;;;;;;0.20;0.20;;;14.90;99.90;;;;;;5077488;28;20059;-75
2022/07/23 05:05:55;;;;;;;0.40;0.40;;;14.80;99.90;;;;;;5086784;28;20044;-75
2022/07/23 05:08:21;;;;;;;;;;;14.80;99.90;;;;;;5072689;28;20483;-75
2022/07/23 05:10:46;;;;;;;0.20;0.20;;;15.00;99.90;;;;;;5084554;28;19927;-75
2022/07/23 05:13:15;;;;;;;0.38;0.38;;;14.90;99.90;;;;;;5075250;28;20040;-75
2022/07/23 05:15:41;;;;;;;0.28;0.28;;;15.30;99.90;;;;;;5057623;28;20036;-75
2022/07/23 05:18:06;;;;;;;0.30;0.30;;;15.10;99.90;;;;;;5072431;28;20045;-75
2022/07/23 05:20:32;;;;;;;0.30;0.30;;;15.30;99.90;;;;;;5083669;28;20062;-75
2022/07/23 05:22:58;;;;;;;;;;;15.30;99.90;;;;;;5057643;28;20040;-75
2022/07/23 05:25:23;;;;;;;0.65;0.65;;;15.30;99.90;;;;;;5079553;28;19939;-75
2022/07/23 05:27:49;;;;;;;0.20;0.20;;;15.30;99.90;;;;;;5077920;28;20048;-75
2022/07/23 05:30:15;;;;;;;0.98;0.98;;;15.20;99.90;;;;;;5081495;28;20480;-75
2022/07/23 05:32:40;;;;;;;;;;;15.40;99.90;;;;;;5078987;28;20400;-75
2022/07/23 05:35:07;;;;;;;0.38;0.38;;;15.20;99.90;;;;;;5083206;28;19916;-75
2022/07/23 05:37:33;;;;;;;0.30;0.30;;;15.20;99.90;;;;;;5076686;28;20373;-76
2022/07/23 05:40:07;;;;;;;;;;;15.30;99.90;;;;;;5087224;28;20035;-75
2022/07/23 05:42:37;;;;;;;0.68;0.68;;;15.10;99.90;;;;;;5076732;28;20482;-75
2022/07/23 05:45:03;;;;;;;0.20;0.20;;;15.10;99.90;;;;;;5084974;28;20047;-75
2022/07/23 05:47:39;;;;;;;0.30;0.30;;;15.20;99.90;;;;;;5084524;28;20089;-75
2022/07/23 05:50:05;;;;;;;0.30;0.30;;;15.40;99.90;;;;;;5083110;28;20087;-76
2022/07/23 05:52:31;;;;;;;0.40;0.40;;;15.50;99.90;;;;;;5082022;28;20458;-75
2022/07/23 05:54:56;;;;;;;;;;;15.60;99.90;;;;;;5083614;28;20040;-75
2022/07/23 05:57:22;;;;;;;0.30;0.30;;;15.70;99.90;;;;;;5080763;28;19920;-75
2022/07/23 05:59:47;;;;;;;0.40;0.40;;;15.80;99.90;;;;;;5092733;28;20114;-75
2022/07/23 06:02:13;;;;;;;0.30;0.30;;;15.90;99.90;;;;;;5096000;28;20051;-75
2022/07/23 06:04:39;;;;;;;0.30;0.30;;;15.80;99.90;;;;;;5073978;28;20106;-75
2022/07/23 06:07:04;;;;;;;;;;;15.90;99.90;;;;;;5082897;28;20134;-75
2022/07/23 06:09:30;;;;;;;0.45;0.45;;;15.80;99.90;;;;;;5085666;28;19919;-76
2022/07/23 06:11:56;;;;;;;0.30;0.30;;;15.80;99.90;;;;;;5072040;28;20047;-76
2022/07/23 06:14:21;;;;;;;;;;;15.80;99.90;;;;;;5082895;28;20104;-75
2022/07/23 06:16:47;;;;;;;0.50;0.50;;;15.80;99.90;;;;;;5057992;28;19927;-76
2022/07/23 06:19:12;;;;;;;0.40;0.40;;;15.90;99.90;;;;;;5076928;28;20051;-75
2022/07/23 06:21:38;;;;;;;;;;;15.70;99.90;;;;;;5079132;28;20115;-75
2022/07/23 06:24:04;;;;;;;0.65;0.63;;;15.60;99.90;;;;;;5082608;28;19930;-75
2022/07/23 06:26:29;;;;;;;0.38;0.38;;;15.60;99.90;;;;;;5077117;28;20040;-75
2022/07/23 06:28:55;;;;;;;;;;;15.80;99.90;;;;;;5081391;28;20623;-75
2022/07/23 06:31:21;;;;;;;0.20;0.20;;;15.90;99.90;;;;;;5078494;28;19935;-75
2022/07/23 06:33:46;;;;;;;0.43;0.43;;;16.00;99.90;;;;;;5077817;28;20032;-75
2022/07/23 06:36:12;;;;;;;;;;;16.30;99.90;;;;;;5064211;28;20131;-75
2022/07/23 06:38:37;;;;;;;0.30;0.30;;;16.30;99.90;;;;;;5073968;28;19997;-76
2022/07/23 06:41:03;;;;;;;;;;;16.30;99.90;;;;;;5076127;28;20741;-76
2022/07/23 06:43:31;;;;;;;0.40;0.40;;;16.50;99.90;;;;;;5057117;28;19916;-75
2022/07/23 06:45:56;;;;;;;0.30;0.30;;;16.50;99.90;;;;;;5072613;28;20094;-75
2022/07/23 06:48:22;;;;;;;;;;;16.50;99.90;;;;;;5074979;28;20040;-76
2022/07/23 06:50:48;;;;;;;0.40;0.40;;;16.70;99.90;;;;;;5062390;28;19927;-75
2022/07/23 06:53:13;;;;;;;;;;;16.60;99.90;;;;;;5076539;28;20045;-77
2022/07/23 06:55:39;;;;;;;0.40;0.40;;;16.60;99.90;;;;;;5075182;28;19962;-75
2022/07/23 06:58:05;;;;;;;;;;;16.60;99.90;;;;;;5038496;28;20477;-76
2022/07/23 07:00:32;;;;;;;0.20;0.20;;;16.70;99.90;;;;;;5077797;28;19924;-75
2022/07/23 07:02:58;;;;;;;0.50;0.50;;;16.90;99.90;;;;;;5076583;28;20055;-76
2022/07/23 07:05:25;;;;;;;;;;;17.00;99.90;;;;;;5081732;28;20032;-75
2022/07/23 07:07:50;;;;;;;;;;;17.20;99.90;;;;;;5085372;28;19924;-76
2022/07/23 07:10:17;;;;;;;0.30;0.30;;;17.30;99.90;;;;;;5082690;28;19923;-75
2022/07/23 07:12:43;;;;;;;0.30;0.30;;;17.20;99.90;;;;;;5080623;28;20457;-76
2022/07/23 07:15:08;;;;;;;0.20;0.20;;;17.10;99.90;;;;;;5071334;28;20127;-76
2022/07/23 07:17:34;;;;;;;;;;;17.00;99.90;;;;;;5076148;28;20067;-75
2022/07/23 07:20:00;;;;;;;0.30;0.30;;;17.10;99.90;;;;;;5071744;28;20005;-75
2022/07/23 07:22:25;;;;;;;;;;;16.90;99.90;;;;;;5064497;28;20044;-75
2022/07/23 07:24:51;;;;;;;0.20;0.20;;;17.00;99.90;;;;;;5075006;28;19916;-75
2022/07/23 07:27:17;;;;;;;;;;;17.30;99.90;;;;;;5078113;28;20031;-75
2022/07/23 07:29:42;;;;;;;0.30;0.30;;;17.50;99.90;;;;;;5080166;28;20369;-75
2022/07/23 07:32:08;;;;;;;;;;;17.60;99.90;;;;;;5084910;28;20039;-75
2022/07/23 07:34:33;;;;;;;0.20;0.20;;;17.70;99.90;;;;;;5073285;28;20023;-75
2022/07/23 07:36:59;;;;;;;;;;;17.90;99.90;;;;;;5063065;28;20052;-74
2022/07/23 07:39:24;;;;;;;0.30;0.30;;;18.10;99.90;;;;;;5083090;28;19916;-75
2022/07/23 07:41:50;;;;;;;;;;;18.40;99.90;;;;;;5074243;28;20070;-76
2022/07/23 07:44:17;;;;;;;0.40;0.40;;;18.60;99.90;;;;;;5072900;28;19917;-75
2022/07/23 07:46:42;;;;;;;0.20;0.20;;;18.90;99.90;;;;;;5077197;28;20440;-75
2022/07/23 07:49:08;;;;;;;;;;;19.00;99.90;;;;;;5057666;28;20127;-75
2022/07/23 07:51:34;;;;;;;0.30;0.30;;;19.10;99.90;;;;;;5088349;28;19924;-75
2022/07/23 07:54:00;;;;;;;;;;;19.10;99.90;;;;;;5059627;28;20041;-75
2022/07/23 07:56:25;;;;;;;0.40;0.40;;;19.00;99.90;;;;;;5056606;28;19987;-74
2022/07/23 07:58:51;;;;;;;;;;;18.90;99.90;;;;;;5074836;28;20048;-75
2022/07/23 08:01:17;;;;;;;0.40;0.40;;;18.90;99.90;;;;;;5057348;28;19923;-75
2022/07/23 08:03:42;;;;;;;;;;;18.90;99.90;;;;;;5070044;28;20036;-75
2022/07/23 08:06:08;;;;;;;0.30;0.30;;;19.20;99.90;;;;;;5077580;28;19969;-75
2022/07/23 08:08:34;;;;;;;;;;;19.20;99.90;;;;;;5088159;28;20049;-75
2022/07/23 08:10:59;;;;;;;0.30;0.30;;;19.40;99.90;;;;;;5077899;28;19927;-76
2022/07/23 08:13:25;;;;;;;;;;;19.40;99.90;;;;;;5076692;28;20105;-75
2022/07/23 08:15:52;;;;;;;0.30;0.30;;;19.40;99.90;;;;;;5079776;28;19981;-75
2022/07/23 08:18:19;;;;;;;0.20;0.20;;;19.50;99.90;;;;;;5059446;28;20060;-75
2022/07/23 08:20:44;;;;;;;0.38;0.38;;;19.50;99.90;;;;;;5061665;28;20054;-75
2022/07/23 08:23:10;;;;;;;0.28;0.28;;;19.40;99.90;;;;;;5081063;28;20048;-75
2022/07/23 08:25:37;;;;;;;;;;;19.40;99.90;;;;;;5076781;28;20040;-75
2022/07/23 08:28:05;;;;;;;0.30;0.30;;;19.30;99.90;;;;;;5077809;28;19926;-74
2022/07/23 08:30:32;;;;;;;0.20;0.20;;;19.30;99.90;;;;;;5081819;28;20440;-76
2022/07/23 08:33:03;;;;;;;0.20;0.20;;;19.30;99.90;;;;;;5075959;28;20505;-75
2022/07/23 08:35:38;;;;;;;0.30;0.30;;;19.60;99.90;;;;;;5089413;28;20105;-75
2022/07/23 08:38:06;;;;;;;0.20;0.20;;;19.90;99.90;;;;;;5082131;28;20048;-76
2022/07/23 08:40:37;;;;;;;0.50;0.50;;;20.10;99.90;;;;;;5085691;28;20141;-76
2022/07/23 08:43:06;;;;;;;0.50;0.50;;;20.20;99.90;;;;;;5092259;28;20139;-75
2022/07/23 08:45:38;;;;;;;0.40;0.40;;;19.90;99.90;;;;;;5082225;28;20067;-75
2022/07/23 08:48:07;;;;;;;0.30;0.30;;;19.80;99.90;;;;;;5087003;28;20056;-75
2022/07/23 08:50:34;;;;;;;0.30;0.30;;;19.70;99.90;;;;;;5086496;28;20114;-77
2022/07/23 08:53:01;;;;;;;0.30;0.30;;;19.50;99.90;;;;;;5087048;28;20041;-75
2022/07/23 08:55:27;;;;;;;0.35;0.30;;;19.40;99.90;;;;;;5068560;28;20089;-74
2022/07/23 08:57:53;;;;;;;0.20;0.20;;;19.70;99.90;;;;;;5080503;28;20059;-76
2022/07/23 09:00:20;;;;;;;0.28;0.28;;;19.80;99.90;;;;;;5092353;28;20032;-73
2022/07/23 09:02:47;;;;;;;0.22;0.22;;;20.10;99.90;;;;;;5089774;28;20040;-74
2022/07/23 09:05:14;;;;;;;0.20;0.20;;;20.30;99.90;;;;;;5082542;28;20044;-74
2022/07/23 09:08:13;;;;;;;0.28;0.28;;;20.40;99.90;;;;;;5076022;28;20033;-74
2022/07/23 09:10:53;;;;;;;0.20;0.20;;;20.50;99.90;;;;;;5084318;28;20072;-75
2022/07/23 09:13:34;;;;;;;0.30;0.30;;;20.50;99.90;;;;;;5075194;28;20044;-74
2022/07/23 09:16:01;;;;;;;0.22;0.22;;;20.50;99.90;;;;;;5074849;28;20483;-74
2022/07/23 09:18:35;;;;;;;0.30;0.30;;;20.40;99.90;;;;;;5078158;28;20123;-74
2022/07/23 09:21:21;;;;;;;0.20;0.20;;;20.30;99.90;;;;;;5075748;28;20072;-75
2022/07/23 09:23:58;;;;;;;0.20;0.20;;;20.20;99.90;;;;;;5078576;28;20048;-75
2022/07/23 09:26:30;;;;;;;0.30;0.30;;;20.10;99.90;;;;;;5056228;28;20048;-75
2022/07/23 09:29:05;;;;;;;0.30;0.30;;;20.20;99.90;;;;;;5078841;28;20040;-75
2022/07/23 09:31:52;;;;;;;0.20;0.20;;;20.40;99.90;;;;;;5073767;28;20049;-76
2022/07/23 09:34:23;;;;;;;0.30;0.30;;;20.60;99.90;;;;;;5067025;28;20048;-76
2022/07/23 09:36:57;;;;;;;0.43;0.43;;;20.70;99.90;;;;;;5078502;28;20044;-76
2022/07/23 09:39:31;;;;;;;0.30;0.30;;;20.50;99.90;;;;;;5085304;28;20032;-75
2022/07/23 09:41:59;;;;;;;0.20;0.20;;;20.80;99.90;;;;;;5080042;28;20047;-76
2022/07/23 09:44:25;;;;;;;0.30;0.30;;;20.90;99.90;;;;;;5090517;28;20119;-75
2022/07/23 09:46:58;;;;;;;0.30;0.30;;;20.90;99.90;;;;;;5080862;28;20192;-75
2022/07/23 09:49:25;;;;;;;0.28;0.28;;;20.90;99.90;;;;;;5074825;28;20131;-75
2022/07/23 09:51:52;;;;;;;0.22;0.22;;;20.90;99.90;;;;;;5088355;28;20036;-76
2022/07/23 09:54:52;;;;;;;0.20;0.20;;;20.90;99.90;;;;;;5074858;28;20040;-75
2022/07/23 09:57:18;;;;;;;0.35;0.35;;;21.00;99.90;;;;;;5060268;28;20090;-75
2022/07/23 09:59:47;;;;;;;0.57;0.55;;;21.20;99.90;;;;;;5085131;28;20063;-75
2022/07/23 10:02:14;;;;;;;1.17;0.88;;;21.40;99.90;;;;;;5073337;28;20048;-76
2022/07/23 10:04:41;;;;;;;0.20;0.20;;;21.30;99.90;;;;;;5087423;28;20040;-75
2022/07/23 10:07:09;;;;;;;0.73;0.73;;;21.30;99.90;;;;;;5074291;28;20119;-76
2022/07/23 10:09:41;;;;;;;0.77;0.77;;;21.10;99.90;;;;;;5084232;28;20073;-75
2022/07/23 10:14:41;;;;;;;0.30;0.30;;;21.10;99.90;;;;;;5083981;28;20480;-75
2022/07/23 10:17:08;;;;;;;0.40;0.40;;;21.20;99.90;;;;;;5072300;28;20189;-74
2022/07/23 10:19:34;;;;;;;0.43;0.43;;;21.30;99.90;;;;;;5076177;28;20052;-74
2022/07/23 10:22:07;;;;;;;0.20;0.20;;;21.10;99.90;;;;;;5075777;28;20434;-76
2022/07/23 10:24:58;;;;;;;0.32;0.32;;;21.10;99.90;;;;;;5097713;28;20361;-75
2022/07/23 10:27:41;;;;;;;0.40;0.40;;;21.20;99.90;;;;;;5079500;28;20047;-76
2022/07/23 10:30:30;;;;;;;0.25;0.25;;;21.00;99.90;;;;;;5080380;28;20498;-76
2022/07/23 10:33:04;;;;;;;1.27;1.23;;;20.90;99.90;;;;;;5069820;28;20047;-77
2022/07/23 10:35:48;;;;;;;0.20;0.20;;;20.80;99.90;;;;;;5075693;28;20492;-75
2022/07/23 10:38:21;;;;;;;0.30;0.30;;;20.70;99.90;;;;;;5077465;28;20111;-76
2022/07/23 10:40:56;;;;;;;0.30;0.30;;;20.50;99.90;;;;;;5055869;28;20036;-74
2022/07/23 10:43:21;;;;;;;0.20;0.20;;;20.60;99.90;;;;;;5071620;28;20047;-75
2022/07/23 10:45:48;;;;;;;0.40;0.40;;;20.40;99.90;;;;;;5079775;28;20027;-76
2022/07/23 10:48:20;;;;;;;0.65;0.50;;;20.40;99.90;;;;;;5085056;28;20051;-75
2022/07/23 10:51:05;;;;;;;0.32;0.32;;;20.30;99.90;;;;;;5076960;28;20082;-75
2022/07/23 10:53:51;;;;;;;0.20;0.20;;;20.90;99.90;;;;;;5076730;28;20082;-75
2022/07/23 10:57:05;;;;;;;0.30;0.30;;;21.20;99.90;;;;;;5081498;28;20035;-75
2022/07/23 10:59:31;;;;;;;0.52;0.52;;;21.60;99.90;;;;;;5081646;28;20489;-75
2022/07/23 11:02:23;;;;;;;0.30;0.30;;;22.00;99.90;;;;;;5082226;28;20051;-75
2022/07/23 11:04:53;;;;;;;0.40;0.40;;;21.90;99.90;;;;;;5082458;28;20508;-76
2022/07/23 11:07:18;;;;;;;0.20;0.20;;;21.90;99.90;;;;;;5078937;28;20062;-79
2022/07/23 11:09:47;;;;;;;0.30;0.30;;;22.10;99.90;;;;;;5063281;28;20036;-75
2022/07/23 11:12:28;;;;;;;0.30;0.30;;;22.10;99.90;;;;;;5071699;28;20052;-75
2022/07/23 11:15:02;;;;;;;0.40;0.40;;;22.00;99.90;;;;;;5060050;28;20055;-73
2022/07/23 11:17:29;;;;;;;0.40;0.40;;;21.70;99.90;;;;;;5073322;28;20047;-79
2022/07/23 11:20:16;;;;;;;0.70;0.70;;;21.40;99.90;;;;;;5074853;28;20037;-75
2022/07/23 11:22:42;;;;;;;0.35;0.35;;;21.20;99.90;;;;;;5076012;28;20053;-74
2022/07/23 11:25:09;;;;;;;0.40;0.40;;;21.10;99.90;;;;;;5071824;28;20056;-75
2022/07/23 11:27:45;;;;;;;0.30;0.30;;;21.10;99.90;;;;;;5075309;28;20041;-76
2022/07/23 11:30:38;;;;;;;0.35;0.35;;;20.90;99.90;;;;;;5071556;28;20389;-80
2022/07/23 11:33:07;;;;;;;0.30;0.30;;;20.80;99.90;;;;;;5069483;28;20050;-75
2022/07/23 11:35:37;;;;;;;0.20;0.20;;;20.80;99.90;;;;;;5072837;28;20120;-75
2022/07/23 11:38:12;;;;;;;0.20;0.20;;;20.80;99.90;;;;;;5068191;28;21016;-76
2022/07/23 11:40:39;;;;;;;0.20;0.20;;;20.80;99.90;;;;;;5070228;28;20052;-76
2022/07/23 11:43:09;;;;;;;0.65;0.65;;;20.70;99.90;;;;;;5075402;28;20040;-76
2022/07/23 11:45:43;;;;;;;0.32;0.32;;;20.60;99.90;;;;;;5073529;28;20059;-76
2022/07/23 11:48:23;;;;;;;0.30;0.30;;;20.60;99.90;;;;;;5072596;28;20087;-75
2022/07/23 11:50:51;;;;;;;0.75;0.63;;;20.70;99.90;;;;;;5075363;28;20048;-77
2022/07/23 11:53:29;;;;;;;0.35;0.35;;;20.90;99.90;;;;;;5072339;28;20078;-76
2022/07/23 11:56:02;;;;;;;0.20;0.20;;;21.00;99.90;;;;;;5077522;28;20114;-76
2022/07/23 11:58:27;;;;;;;0.20;0.20;;;21.30;99.90;;;;;;5078258;28;20036;-81
2022/07/23 12:00:55;;;;;;;0.20;0.20;;;21.70;99.90;;;;;;5081669;28;20043;-79
2022/07/23 12:03:21;;;;;;;0.30;0.30;;;21.80;99.90;;;;;;5072439;28;20131;-76
2022/07/23 12:05:47;;;;;;;0.32;0.32;;;22.00;99.90;;;;;;5081942;28;20118;-75
2022/07/23 12:08:12;;;;;;;0.20;0.20;;;22.30;99.90;;;;;;5077458;28;20459;-76
2022/07/23 12:10:44;;;;;;;0.52;0.52;;;22.50;99.90;;;;;;5070037;28;20058;-76
2022/07/23 12:13:12;;;;;;;0.30;0.30;;;22.50;99.90;;;;;;5034871;28;20090;-74
2022/07/23 12:15:41;;;;;;;0.40;0.40;;;22.60;99.90;;;;;;5078394;28;20040;-75
2022/07/23 12:18:11;;;;;;;0.40;0.40;;;22.70;99.90;;;;;;5080586;28;20438;-77
2022/07/23 12:20:49;;;;;;;1.48;1.38;;;22.60;99.90;;;;;;5079388;28;20048;-73
2022/07/23 12:23:16;;;;;;;1.00;1.00;;;22.70;99.90;;;;;;5076396;28;20040;-75
2022/07/23 12:25:44;;;;;;;0.30;0.30;;;22.60;99.90;;;;;;5076756;28;20119;-76
2022/07/23 12:28:14;;;;;;;0.20;0.20;;;22.50;99.90;;;;;;5074706;28;20131;-74
2022/07/23 12:30:43;;;;;;;0.55;0.55;;;22.40;99.90;;;;;;5084279;28;20047;-74
2022/07/23 12:33:11;;;;;;;0.30;0.30;;;22.10;99.90;;;;;;5077697;28;20040;-75
2022/07/23 12:35:43;;;;;;;0.40;0.40;;;22.10;99.90;;;;;;5083551;28;20048;-75
2022/07/23 12:38:14;;;;;;;0.45;0.45;;;22.40;99.90;;;;;;5061385;28;20551;-77
2022/07/23 12:40:47;;;;;;;0.40;0.40;;;23.00;99.90;;;;;;5067797;28;20044;-77
2022/07/23 12:43:22;;;;;;;0.40;0.40;;;23.30;99.90;;;;;;5070398;28;20512;-78
2022/07/23 12:45:50;;;;;;;0.93;0.77;;;23.40;99.90;;;;;;5075323;28;20044;-79
2022/07/23 12:48:36;;;;;;;0.30;0.30;;;23.30;99.90;;;;;;5059400;28;20076;-76
2022/07/23 12:51:22;;;;;;;0.30;0.30;;;23.50;99.90;;;;;;5060271;28;20097;-75
2022/07/23 12:53:50;;;;;;;0.47;0.47;;;23.70;99.90;;;;;;5065229;28;20123;-75
2022/07/23 12:56:20;;;;;;;0.40;0.40;;;23.90;99.90;;;;;;5081673;28;20123;-76
2022/07/23 12:58:51;;;;;;;0.30;0.30;;;23.80;99.90;;;;;;5088080;28;20078;-75
2022/07/23 13:01:20;;;;;;;0.20;0.20;;;23.80;99.90;;;;;;5076840;28;20047;-74
2022/07/23 13:04:04;;;;;;;0.20;0.20;;;24.20;99.90;;;;;;5070193;28;20084;-74
2022/07/23 13:06:33;;;;;;;0.20;0.20;;;24.80;99.90;;;;;;5075313;28;20406;-74
2022/07/23 13:08:59;;;;;;;0.25;0.25;;;25.10;99.90;;;;;;5078292;28;20374;-74